Time;durP1;ratioP1;P1;durP2;ratioP2;P2;SDS_P1;SDS_P2;PMS_P1;PMS_P2;Temp;Humidity;BMP_temperature;BMP_pressure;BME280_temperature;BME280_humidity;BME280_pressure;Samples;Min_cycle;Max_cycle;Signal;HPM_P1;HPM_P2
2023/03/11 00:02:16;;;;;;;19.30;12.00;;;3.10;99.90;;;;;;5068667;28;20215;-76
2023/03/11 00:04:42;;;;;;;16.60;10.63;;;3.10;99.90;;;;;;5064905;28;20620;-77
2023/03/11 00:07:09;;;;;;;17.07;10.57;;;3.10;99.90;;;;;;5069928;28;20206;-74
2023/03/11 00:09:36;;;;;;;17.40;11.80;;;3.00;99.90;;;;;;5066654;28;20268;-74
2023/03/11 00:12:02;;;;;;;20.07;11.73;;;3.10;99.90;;;;;;5066331;28;20204;-76
2023/03/11 00:14:27;;;;;;;19.83;11.37;;;3.00;99.90;;;;;;5067593;28;20244;-77
2023/03/11 00:16:53;;;;;;;17.67;10.97;;;3.00;99.90;;;;;;5062741;28;20209;-77
2023/03/11 00:19:19;;;;;;;17.20;10.13;;;2.90;99.90;;;;;;5064507;28;20229;-77
2023/03/11 00:21:44;;;;;;;16.00;10.20;;;2.90;99.90;;;;;;5068341;28;20212;-75
2023/03/11 00:24:10;;;;;;;14.43;9.07;;;2.80;99.90;;;;;;5045070;28;20214;-76
2023/03/11 00:26:36;;;;;;;14.70;9.63;;;2.80;99.90;;;;;;5061949;28;20243;-74
2023/03/11 00:29:01;;;;;;;13.57;9.43;;;2.80;99.90;;;;;;5070673;28;20180;-74
2023/03/11 00:31:27;;;;;;;13.40;9.37;;;2.80;99.90;;;;;;5066778;28;20175;-72
2023/03/11 00:33:55;;;;;;;13.63;9.70;;;2.70;99.90;;;;;;5050560;28;20257;-77
2023/03/11 00:36:30;;;;;;;15.03;9.53;;;2.70;99.90;;;;;;5064463;28;20210;-77
2023/03/11 00:38:56;;;;;;;14.40;9.53;;;2.60;99.90;;;;;;5061857;28;20264;-74
2023/03/11 00:41:22;;;;;;;15.80;10.33;;;2.60;99.90;;;;;;5066001;28;20207;-76
2023/03/11 00:43:48;;;;;;;16.00;10.73;;;2.50;99.90;;;;;;5066633;28;20188;-75
2023/03/11 00:46:13;;;;;;;15.53;10.83;;;2.50;99.90;;;;;;5048363;28;20203;-75
2023/03/11 00:48:39;;;;;;;17.10;10.53;;;2.50;99.90;;;;;;5084917;22;20222;-74
2023/03/11 00:51:06;;;;;;;15.70;10.40;;;2.50;99.90;;;;;;5089866;28;20206;-78
2023/03/11 00:53:32;;;;;;;16.03;10.50;;;2.50;99.90;;;;;;5089282;28;20715;-76
2023/03/11 00:56:00;;;;;;;17.13;11.47;;;2.50;99.90;;;;;;5091013;28;20252;-71
2023/03/11 00:58:27;;;;;;;17.63;12.17;;;2.60;99.90;;;;;;5091179;28;20238;-71
2023/03/11 01:00:53;;;;;;;17.07;11.20;;;2.50;99.90;;;;;;5088531;28;20210;-71
2023/03/11 01:03:19;;;;;;;17.23;11.50;;;2.50;99.90;;;;;;5085783;28;20336;-73
2023/03/11 01:05:44;;;;;;;17.30;11.73;;;2.40;99.90;;;;;;5086591;28;20206;-70
2023/03/11 01:08:10;;;;;;;18.27;12.40;;;2.50;99.90;;;;;;5088027;28;20217;-71
2023/03/11 01:10:36;;;;;;;18.77;12.50;;;2.30;99.90;;;;;;5071264;28;20171;-71
2023/03/11 01:13:02;;;;;;;17.60;11.93;;;2.40;99.90;;;;;;5086434;28;20256;-72
2023/03/11 01:15:35;;;;;;;18.77;11.83;;;2.30;99.90;;;;;;5088031;28;20212;-71
2023/03/11 01:18:01;;;;;;;15.10;11.80;;;2.30;99.90;;;;;;5087166;28;20203;-71
2023/03/11 01:20:27;;;;;;;17.90;11.83;;;2.30;99.90;;;;;;5090503;28;20708;-71
2023/03/11 01:22:53;;;;;;;17.77;11.90;;;2.30;99.90;;;;;;5070726;28;20210;-70
2023/03/11 01:25:22;;;;;;;18.70;11.47;;;2.30;99.90;;;;;;5088274;28;20253;-72
2023/03/11 01:27:47;;;;;;;16.63;11.20;;;2.30;99.90;;;;;;5068592;28;20301;-72
2023/03/11 01:30:20;;;;;;;15.47;10.53;;;2.20;99.90;;;;;;5072932;28;20286;-71
2023/03/11 01:32:46;;;;;;;14.13;10.20;;;2.30;99.90;;;;;;5089025;28;20215;-69
2023/03/11 01:35:13;;;;;;;13.30;9.63;;;2.30;99.90;;;;;;5085213;28;20669;-70
2023/03/11 01:37:39;;;;;;;11.20;8.67;;;2.40;99.90;;;;;;5069937;28;20194;-69
2023/03/11 01:40:06;;;;;;;10.97;8.33;;;2.30;99.90;;;;;;5100301;28;20238;-72
2023/03/11 01:42:32;;;;;;;11.60;7.70;;;2.40;99.90;;;;;;5081842;28;20207;-71
2023/03/11 01:44:58;;;;;;;9.43;6.67;;;2.40;99.90;;;;;;5070012;28;20217;-70
2023/03/11 01:47:31;;;;;;;8.97;6.03;;;2.30;99.90;;;;;;5085743;28;20218;-72
2023/03/11 01:49:57;;;;;;;6.63;5.30;;;2.30;99.90;;;;;;5083895;28;20215;-69
2023/03/11 01:52:23;;;;;;;8.13;5.13;;;2.20;99.90;;;;;;5066386;28;20781;-72
2023/03/11 01:54:49;;;;;;;5.87;4.47;;;2.20;99.90;;;;;;5062373;28;20724;-71
2023/03/11 01:57:15;;;;;;;4.90;3.90;;;2.20;99.90;;;;;;5088260;28;20217;-71
2023/03/11 01:59:49;;;;;;;4.67;3.07;;;2.20;99.90;;;;;;5067448;28;20291;-69
2023/03/11 02:02:35;;;;;;;4.17;3.00;;;2.20;99.90;;;;;;5085470;28;20221;-71
2023/03/11 02:05:02;;;;;;;4.80;2.60;;;2.20;99.90;;;;;;5063952;28;20181;-71
2023/03/11 02:07:28;;;;;;;2.70;2.20;;;2.20;99.90;;;;;;5073091;28;20838;-70
2023/03/11 02:09:54;;;;;;;3.30;2.30;;;2.20;99.90;;;;;;5068167;28;20214;-70
2023/03/11 02:12:20;;;;;;;2.70;2.07;;;2.10;99.90;;;;;;5085886;28;20218;-70
2023/03/11 02:14:49;;;;;;;2.83;1.70;;;2.20;99.90;;;;;;5069735;28;20629;-70
2023/03/11 02:17:15;;;;;;;1.80;1.50;;;2.20;99.90;;;;;;5086564;28;20285;-71
2023/03/11 02:19:59;;;;;;;2.33;2.00;;;2.20;99.90;;;;;;5084764;28;20202;-69
2023/03/11 02:22:28;;;;;;;1.57;1.47;;;2.20;99.90;;;;;;5084796;28;20205;-69
2023/03/11 02:24:59;;;;;;;3.50;1.87;;;2.20;99.90;;;;;;5082332;28;20340;-70
2023/03/11 02:27:27;;;;;;;1.67;1.57;;;2.20;99.90;;;;;;5072648;28;20217;-71
2023/03/11 02:29:55;;;;;;;1.80;1.40;;;2.20;99.90;;;;;;5065906;28;20223;-70
2023/03/11 02:32:21;;;;;;;1.90;1.60;;;2.10;99.90;;;;;;5084343;28;20210;-69
2023/03/11 02:34:47;;;;;;;1.47;1.30;;;2.20;99.90;;;;;;5069249;28;20270;-72
2023/03/11 02:37:15;;;;;;;1.90;1.70;;;2.20;99.90;;;;;;5064323;28;20291;-71
2023/03/11 02:39:53;;;;;;;2.33;1.63;;;2.20;99.90;;;;;;5085379;28;20225;-72
2023/03/11 02:42:27;;;;;;;2.07;1.80;;;2.20;99.90;;;;;;5083246;28;20204;-71
2023/03/11 02:45:06;;;;;;;1.80;1.50;;;2.20;99.90;;;;;;5061355;28;20236;-71
2023/03/11 02:47:33;;;;;;;2.37;1.80;;;2.20;99.90;;;;;;5062579;28;20602;-70
2023/03/11 02:49:59;;;;;;;1.87;1.70;;;2.20;99.90;;;;;;5086978;28;20220;-71
2023/03/11 02:52:27;;;;;;;2.60;1.90;;;2.20;99.90;;;;;;5087174;28;20189;-69
2023/03/11 02:54:53;;;;;;;2.93;2.00;;;2.10;99.90;;;;;;5063392;28;20203;-70
2023/03/11 02:57:18;;;;;;;2.47;2.00;;;2.10;99.90;;;;;;5086067;28;20287;-70
2023/03/11 02:59:44;;;;;;;2.97;2.03;;;2.10;99.90;;;;;;5078328;28;20209;-69
2023/03/11 03:02:09;;;;;;;3.77;2.20;;;2.10;99.90;;;;;;5087434;28;20560;-72
2023/03/11 03:04:35;;;;;;;3.70;2.50;;;2.10;99.90;;;;;;5068501;28;20171;-71
2023/03/11 03:07:01;;;;;;;2.67;2.20;;;2.00;99.90;;;;;;5081817;28;20219;-70
2023/03/11 03:09:26;;;;;;;3.90;2.60;;;2.00;99.90;;;;;;5080822;28;20234;-70
2023/03/11 03:11:52;;;;;;;2.90;2.53;;;2.10;99.90;;;;;;5087215;28;20287;-73
2023/03/11 03:14:18;;;;;;;4.27;2.50;;;2.10;99.90;;;;;;5086882;28;20209;-72
2023/03/11 03:16:43;;;;;;;5.23;3.20;;;2.00;99.90;;;;;;5062528;28;20179;-71
2023/03/11 03:19:09;;;;;;;4.73;3.10;;;2.00;99.90;;;;;;5063558;28;20214;-71
2023/03/11 03:21:34;;;;;;;4.70;3.03;;;2.10;99.90;;;;;;5085493;28;20285;-70
2023/03/11 03:24:00;;;;;;;2.90;2.60;;;2.00;99.90;;;;;;5083224;28;20248;-71
2023/03/11 03:26:26;;;;;;;5.30;2.90;;;2.00;99.90;;;;;;5069739;28;20209;-70
2023/03/11 03:28:52;;;;;;;3.67;2.57;;;2.00;99.90;;;;;;5079556;28;20215;-71
2023/03/11 03:31:17;;;;;;;3.33;2.73;;;2.10;99.90;;;;;;5082916;28;20202;-69
2023/03/11 03:33:43;;;;;;;4.07;2.70;;;2.00;99.90;;;;;;5070220;28;20684;-69
2023/03/11 03:36:11;;;;;;;4.53;2.70;;;2.00;99.90;;;;;;5067674;28;20680;-69
2023/03/11 03:38:37;;;;;;;3.97;2.70;;;2.00;99.90;;;;;;5081188;28;20305;-69
2023/03/11 03:41:03;;;;;;;4.67;3.50;;;2.00;99.90;;;;;;5079595;28;20477;-72
2023/03/11 03:43:29;;;;;;;4.90;3.37;;;2.00;99.90;;;;;;5085829;28;20175;-72
2023/03/11 03:46:00;;;;;;;3.97;3.17;;;2.00;99.90;;;;;;5085354;28;20211;-72
2023/03/11 03:48:27;;;;;;;4.23;3.10;;;2.10;99.90;;;;;;5071454;28;20283;-71
2023/03/11 03:50:52;;;;;;;4.73;3.37;;;2.10;99.90;;;;;;5078933;28;20210;-73
2023/03/11 03:53:19;;;;;;;4.53;3.23;;;2.00;99.90;;;;;;5081478;28;20214;-71
2023/03/11 03:55:44;;;;;;;4.60;3.50;;;2.00;99.90;;;;;;5080775;28;20183;-72
2023/03/11 03:58:10;;;;;;;7.07;3.57;;;2.00;99.90;;;;;;5082350;28;20758;-71
2023/03/11 04:00:35;;;;;;;5.07;3.40;;;2.00;99.90;;;;;;5079325;28;20207;-71
2023/03/11 04:03:01;;;;;;;4.63;3.37;;;2.00;99.90;;;;;;5077631;28;20227;-70
2023/03/11 04:05:27;;;;;;;4.67;3.60;;;2.00;99.90;;;;;;5083514;28;20210;-71
2023/03/11 04:07:53;;;;;;;4.00;3.47;;;2.10;99.90;;;;;;5077843;28;20624;-71
2023/03/11 04:10:19;;;;;;;4.87;3.50;;;2.10;99.90;;;;;;5068083;28;20186;-69
2023/03/11 04:12:45;;;;;;;4.13;3.50;;;2.00;99.90;;;;;;5081183;28;20207;-70
2023/03/11 04:15:10;;;;;;;5.10;3.40;;;2.00;99.90;;;;;;5080825;28;20199;-70
2023/03/11 04:17:37;;;;;;;6.17;3.60;;;2.10;99.90;;;;;;5084514;28;20256;-71
2023/03/11 04:20:06;;;;;;;5.13;3.50;;;2.10;99.90;;;;;;5080969;28;20206;-71
2023/03/11 04:22:33;;;;;;;4.60;4.03;;;2.10;99.90;;;;;;5070469;28;20723;-70
2023/03/11 04:24:59;;;;;;;4.20;3.10;;;2.10;99.90;;;;;;5066784;28;20199;-72
2023/03/11 04:27:25;;;;;;;5.50;3.50;;;2.10;99.90;;;;;;5082644;28;20211;-72
2023/03/11 04:29:50;;;;;;;5.30;3.90;;;2.10;99.90;;;;;;5082044;28;20241;-69
2023/03/11 04:32:16;;;;;;;3.93;3.20;;;2.10;99.90;;;;;;5084691;28;20223;-69
2023/03/11 04:34:42;;;;;;;4.20;2.90;;;2.00;99.90;;;;;;5082050;28;20176;-71
2023/03/11 04:37:07;;;;;;;4.80;3.63;;;2.00;99.90;;;;;;5084170;28;20270;-71
2023/03/11 04:39:33;;;;;;;4.80;3.87;;;2.00;99.90;;;;;;5087018;28;20730;-72
2023/03/11 04:41:58;;;;;;;3.60;2.93;;;2.00;99.90;;;;;;5083310;28;20884;-70
2023/03/11 04:44:24;;;;;;;4.17;3.27;;;2.10;99.90;;;;;;5066003;28;20217;-71
2023/03/11 04:46:50;;;;;;;4.30;3.07;;;2.10;99.90;;;;;;5080332;28;20184;-69
2023/03/11 04:49:15;;;;;;;5.37;3.37;;;2.10;99.90;;;;;;5081565;28;20218;-71
2023/03/11 04:51:41;;;;;;;3.40;2.67;;;2.10;99.90;;;;;;5084069;28;20882;-72
2023/03/11 04:54:07;;;;;;;3.13;2.50;;;2.10;99.90;;;;;;5082615;28;20206;-71
2023/03/11 04:56:33;;;;;;;3.90;2.87;;;2.00;99.90;;;;;;5082080;28;20234;-69
2023/03/11 04:58:59;;;;;;;2.90;2.60;;;2.00;99.90;;;;;;5081067;28;20226;-69
2023/03/11 05:01:25;;;;;;;3.13;2.50;;;2.00;99.90;;;;;;5101140;28;20175;-71
2023/03/11 05:03:50;;;;;;;3.53;2.83;;;2.00;99.90;;;;;;5080881;28;20210;-70
2023/03/11 05:06:16;;;;;;;4.30;2.60;;;2.00;99.90;;;;;;5098841;28;20846;-71
2023/03/11 05:08:41;;;;;;;2.87;2.43;;;2.00;99.90;;;;;;5080209;28;20719;-71
2023/03/11 05:11:07;;;;;;;3.13;2.40;;;2.00;99.90;;;;;;5079775;28;20225;-68
2023/03/11 05:13:33;;;;;;;3.10;2.50;;;2.10;99.90;;;;;;5061303;28;20767;-72
2023/03/11 05:15:59;;;;;;;3.30;2.30;;;2.10;99.90;;;;;;5082314;28;20292;-72
2023/03/11 05:18:24;;;;;;;2.70;2.50;;;2.10;99.90;;;;;;5083874;28;20222;-72
2023/03/11 05:20:50;;;;;;;3.57;2.70;;;2.00;99.90;;;;;;5064428;28;20282;-72
2023/03/11 05:23:15;;;;;;;3.13;2.43;;;2.00;99.90;;;;;;5083416;28;20244;-70
2023/03/11 05:25:41;;;;;;;3.47;2.20;;;2.00;99.90;;;;;;5082814;28;20188;-72
2023/03/11 05:28:07;;;;;;;4.07;2.63;;;2.10;99.90;;;;;;5063883;28;20218;-72
2023/03/11 05:30:32;;;;;;;3.43;2.37;;;2.10;99.90;;;;;;5084377;28;20203;-71
2023/03/11 05:32:58;;;;;;;2.63;2.43;;;2.10;99.90;;;;;;5080381;28;20231;-72
2023/03/11 05:35:24;;;;;;;2.77;2.40;;;2.10;99.90;;;;;;5082678;28;20232;-71
2023/03/11 05:37:49;;;;;;;4.07;2.80;;;2.10;99.90;;;;;;5068357;28;20219;-72
2023/03/11 05:40:16;;;;;;;2.70;2.37;;;2.10;99.90;;;;;;5064807;28;20176;-70
2023/03/11 05:42:41;;;;;;;3.10;2.80;;;2.10;99.90;;;;;;5082979;28;20237;-72
2023/03/11 05:45:08;;;;;;;2.80;2.50;;;2.10;99.90;;;;;;5079004;28;20238;-71
2023/03/11 05:47:34;;;;;;;3.50;2.80;;;2.10;99.90;;;;;;5083199;28;20217;-71
2023/03/11 05:49:59;;;;;;;3.70;3.23;;;2.10;99.90;;;;;;5079396;28;20272;-72
2023/03/11 05:52:25;;;;;;;4.63;2.90;;;2.10;99.90;;;;;;5096894;28;20645;-72
2023/03/11 05:54:51;;;;;;;3.40;2.83;;;2.10;99.90;;;;;;5063345;28;20234;-73
2023/03/11 05:57:18;;;;;;;8.07;3.30;;;2.10;99.90;;;;;;5068599;28;20237;-73
2023/03/11 05:59:44;;;;;;;3.97;3.00;;;2.20;99.90;;;;;;5080451;28;20202;-71
2023/03/11 06:02:10;;;;;;;5.07;3.33;;;2.10;99.90;;;;;;5078548;28;20214;-70
2023/03/11 06:04:36;;;;;;;4.93;3.07;;;2.10;99.90;;;;;;5082955;28;20171;-73
2023/03/11 06:07:01;;;;;;;4.80;3.77;;;2.10;99.90;;;;;;5079392;28;20659;-70
2023/03/11 06:09:27;;;;;;;6.00;3.30;;;2.20;99.90;;;;;;5080827;28;20213;-71
2023/03/11 06:11:53;;;;;;;5.40;3.63;;;2.10;99.90;;;;;;5086446;28;20597;-71
2023/03/11 06:14:18;;;;;;;4.60;3.60;;;2.10;99.90;;;;;;5070740;28;20702;-72
2023/03/11 06:16:44;;;;;;;4.97;3.40;;;2.10;99.90;;;;;;5084754;28;20249;-72
2023/03/11 06:19:11;;;;;;;4.47;3.43;;;2.10;99.90;;;;;;5082458;28;20212;-72
2023/03/11 06:21:36;;;;;;;6.90;3.67;;;2.10;99.90;;;;;;5082419;28;20679;-70
2023/03/11 06:24:03;;;;;;;5.67;4.10;;;2.20;99.90;;;;;;5086903;28;20210;-71
2023/03/11 06:26:28;;;;;;;7.53;4.10;;;2.20;99.90;;;;;;5087522;28;20283;-72
2023/03/11 06:28:54;;;;;;;5.50;3.93;;;2.20;99.90;;;;;;5082979;28;20667;-71
2023/03/11 06:31:26;;;;;;;5.77;4.00;;;2.20;99.90;;;;;;5082665;28;20598;-72
2023/03/11 06:33:54;;;;;;;6.47;4.43;;;2.20;99.90;;;;;;5067924;28;20281;-72
2023/03/11 06:36:21;;;;;;;5.07;4.10;;;2.20;99.90;;;;;;5082137;28;20290;-71
2023/03/11 06:38:48;;;;;;;5.73;3.80;;;2.20;99.90;;;;;;5084934;28;20293;-70
2023/03/11 06:41:14;;;;;;;5.00;4.30;;;2.20;99.90;;;;;;5084156;28;20211;-71
2023/03/11 06:43:40;;;;;;;5.37;4.17;;;2.20;99.90;;;;;;5082989;28;20172;-70
2023/03/11 06:46:11;;;;;;;7.17;4.30;;;2.20;99.90;;;;;;5071160;28;20619;-70
2023/03/11 06:48:36;;;;;;;5.37;4.07;;;2.30;99.90;;;;;;5086306;28;20301;-71
2023/03/11 06:51:02;;;;;;;6.93;4.23;;;2.20;99.90;;;;;;5081805;28;20305;-71
2023/03/11 06:53:29;;;;;;;7.00;4.17;;;2.30;99.90;;;;;;5082057;28;20230;-70
2023/03/11 06:56:07;;;;;;;5.90;4.03;;;2.30;99.90;;;;;;5089731;22;20222;-74
2023/03/11 06:58:34;;;;;;;7.23;4.73;;;2.30;99.90;;;;;;5068558;28;20181;-73
2023/03/11 07:01:10;;;;;;;6.73;4.37;;;2.40;99.90;;;;;;5049150;28;20316;-74
2023/03/11 07:03:36;;;;;;;4.80;3.73;;;2.50;99.90;;;;;;5060130;28;20203;-73
2023/03/11 07:06:03;;;;;;;9.73;4.40;;;2.60;99.90;;;;;;5070574;28;20207;-75
2023/03/11 07:08:29;;;;;;;6.60;4.20;;;2.50;99.90;;;;;;5075080;28;20222;-72
2023/03/11 07:11:00;;;;;;;7.07;4.77;;;2.50;99.90;;;;;;5070035;28;20270;-74
2023/03/11 07:13:26;;;;;;;6.40;3.93;;;2.50;99.90;;;;;;5055605;28;20184;-74
2023/03/11 07:16:00;;;;;;;5.87;3.93;;;2.60;99.90;;;;;;5066520;28;20207;-74
2023/03/11 07:18:26;;;;;;;7.20;4.53;;;2.80;99.90;;;;;;5074821;28;20213;-74
2023/03/11 07:20:51;;;;;;;8.53;4.33;;;2.90;99.90;;;;;;5069476;28;20586;-72
2023/03/11 07:23:17;;;;;;;6.13;3.90;;;3.10;99.90;;;;;;5045585;28;20211;-74
2023/03/11 07:25:47;;;;;;;8.83;4.20;;;2.90;99.90;;;;;;5065133;28;20209;-73
2023/03/11 07:28:13;;;;;;;9.63;4.90;;;3.00;99.90;;;;;;5068310;28;20222;-73
2023/03/11 07:30:39;;;;;;;6.27;4.07;;;3.20;99.90;;;;;;5074687;28;20214;-74
2023/03/11 07:33:05;;;;;;;5.40;3.87;;;3.50;99.90;;;;;;5062685;28;20749;-75
2023/03/11 07:35:30;;;;;;;4.50;3.57;;;3.80;99.90;;;;;;5064326;28;20209;-75
2023/03/11 07:37:56;;;;;;;5.27;3.83;;;4.00;99.90;;;;;;5068444;28;20194;-75
2023/03/11 07:40:22;;;;;;;5.30;3.97;;;3.90;99.90;;;;;;5052924;28;20181;-72
2023/03/11 07:42:48;;;;;;;5.27;3.93;;;3.70;99.90;;;;;;5052542;28;20214;-74
2023/03/11 07:45:13;;;;;;;6.10;3.67;;;3.60;99.90;;;;;;5064328;28;20300;-74
2023/03/11 07:47:39;;;;;;;7.00;4.20;;;3.70;99.90;;;;;;5072424;28;20212;-75
2023/03/11 07:50:05;;;;;;;8.03;4.63;;;3.80;99.90;;;;;;5061538;28;20177;-74
2023/03/11 07:52:31;;;;;;;9.53;4.57;;;3.90;99.90;;;;;;5078167;28;20253;-74
2023/03/11 07:54:58;;;;;;;6.03;4.37;;;3.90;99.90;;;;;;5053939;28;20214;-74
2023/03/11 07:57:23;;;;;;;7.70;4.30;;;3.80;99.90;;;;;;5067370;28;20221;-74
2023/03/11 07:59:49;;;;;;;5.27;4.27;;;3.80;99.90;;;;;;5068911;28;20214;-74
2023/03/11 08:02:15;;;;;;;6.77;4.43;;;3.70;99.90;;;;;;5079251;28;20219;-74
2023/03/11 08:04:40;;;;;;;8.83;4.50;;;3.90;99.90;;;;;;5072847;28;20227;-74
2023/03/11 08:07:06;;;;;;;6.73;4.17;;;4.10;99.90;;;;;;5064395;28;20211;-74
2023/03/11 08:09:34;;;;;;;7.53;3.87;;;4.30;99.90;;;;;;5075790;28;20285;-74
2023/03/11 08:11:59;;;;;;;6.43;4.10;;;4.30;99.90;;;;;;5077178;28;20701;-74
2023/03/11 08:14:25;;;;;;;6.77;4.03;;;4.30;99.90;;;;;;5072549;28;20300;-75
2023/03/11 08:16:51;;;;;;;6.10;3.53;;;4.40;99.90;;;;;;5055016;28;20210;-75
2023/03/11 08:19:16;;;;;;;4.67;3.60;;;5.00;99.90;;;;;;5066920;28;20175;-75
2023/03/11 08:21:42;;;;;;;21.57;9.20;;;6.90;99.90;;;;;;5080590;28;20237;-74
2023/03/11 08:24:11;;;;;;;6.20;4.07;;;7.60;99.90;;;;;;5071892;28;20207;-74
2023/03/11 08:26:37;;;;;;;5.10;2.90;;;7.80;99.90;;;;;;5070699;28;20203;-73
2023/03/11 08:29:03;;;;;;;6.43;3.57;;;7.90;99.90;;;;;;5064380;28;20269;-72
2023/03/11 08:31:31;;;;;;;6.00;3.73;;;8.10;99.90;;;;;;5056397;28;20174;-76
2023/03/11 08:34:00;;;;;;;4.97;3.17;;;7.70;99.90;;;;;;5072710;28;20685;-74
2023/03/11 08:36:26;;;;;;;5.90;3.97;;;7.20;99.90;;;;;;5074168;28;20213;-75
2023/03/11 08:38:52;;;;;;;5.83;4.60;;;6.70;99.90;;;;;;5069502;28;20203;-78
2023/03/11 08:41:18;;;;;;;6.53;4.17;;;6.60;99.90;;;;;;5065073;28;20251;-80
2023/03/11 08:43:44;;;;;;;4.67;3.97;;;6.30;99.90;;;;;;5062385;28;20179;-73
2023/03/11 08:46:19;;;;;;;6.30;4.03;;;6.40;99.90;;;;;;5068452;28;20214;-77
2023/03/11 08:48:45;;;;;;;4.27;3.17;;;6.00;99.90;;;;;;5063738;28;20218;-75
2023/03/11 08:51:11;;;;;;;4.23;3.33;;;5.80;99.90;;;;;;5055733;28;20211;-77
2023/03/11 08:53:37;;;;;;;6.20;3.63;;;5.80;99.90;;;;;;5052948;28;20221;-75
2023/03/11 08:56:04;;;;;;;8.47;4.00;;;5.60;99.90;;;;;;5058562;28;20589;-76
2023/03/11 08:58:29;;;;;;;4.83;4.20;;;5.30;99.90;;;;;;5077256;28;20184;-76
2023/03/11 09:00:56;;;;;;;4.87;3.63;;;5.10;99.90;;;;;;5072177;28;20215;-76
2023/03/11 09:03:22;;;;;;;5.37;3.93;;;5.00;99.90;;;;;;5055271;28;20225;-76
2023/03/11 09:05:47;;;;;;;4.57;3.90;;;4.90;99.90;;;;;;5072370;28;20712;-75
2023/03/11 09:08:13;;;;;;;5.93;4.53;;;4.50;99.90;;;;;;5055699;28;20786;-75
2023/03/11 09:10:39;;;;;;;5.77;3.90;;;4.50;99.90;;;;;;5071675;28;20205;-76
2023/03/11 09:13:05;;;;;;;7.23;3.70;;;4.60;99.90;;;;;;5072352;28;20242;-75
2023/03/11 09:15:30;;;;;;;7.10;4.20;;;4.60;99.90;;;;;;5070540;28;20249;-75
2023/03/11 09:17:56;;;;;;;7.13;4.40;;;4.70;99.90;;;;;;5053056;28;20623;-75
2023/03/11 09:20:22;;;;;;;6.50;4.63;;;4.70;99.90;;;;;;5057383;28;20217;-75
2023/03/11 09:22:48;;;;;;;6.87;4.53;;;4.80;99.90;;;;;;5054912;28;20624;-75
2023/03/11 09:25:14;;;;;;;5.73;4.10;;;4.50;99.90;;;;;;5054300;28;20198;-75
2023/03/11 09:27:40;;;;;;;7.00;5.40;;;4.40;99.90;;;;;;5072057;28;20264;-75
2023/03/11 09:30:06;;;;;;;7.10;4.77;;;4.30;99.90;;;;;;5055349;28;20214;-75
2023/03/11 09:32:32;;;;;;;8.73;5.80;;;4.30;99.90;;;;;;5071136;28;20203;-75
2023/03/11 09:35:00;;;;;;;5.77;4.50;;;4.20;99.90;;;;;;5070670;28;20202;-76
2023/03/11 09:37:28;;;;;;;7.13;5.30;;;4.30;99.90;;;;;;5051009;28;20175;-74
2023/03/11 09:39:54;;;;;;;5.30;4.03;;;4.10;99.90;;;;;;5072646;28;20245;-76
2023/03/11 09:42:33;;;;;;;10.03;5.53;;;3.90;99.90;;;;;;5070883;28;20238;-75
2023/03/11 09:44:58;;;;;;;7.23;4.67;;;3.70;99.90;;;;;;5053361;28;20285;-76
2023/03/11 09:47:36;;;;;;;8.87;5.50;;;3.70;99.90;;;;;;5052605;28;20214;-76
2023/03/11 09:50:13;;;;;;;7.50;5.33;;;3.70;99.90;;;;;;5068547;28;20182;-76
2023/03/11 09:53:02;;;;;;;6.93;4.90;;;3.70;99.90;;;;;;5070362;28;20178;-75
2023/03/11 09:55:31;;;;;;;6.83;4.70;;;3.60;99.90;;;;;;5070625;28;20321;-76
2023/03/11 09:57:59;;;;;;;8.43;5.27;;;3.60;99.90;;;;;;5071803;28;20213;-76
2023/03/11 10:00:24;;;;;;;8.13;5.03;;;3.60;99.90;;;;;;5071611;28;20229;-74
2023/03/11 10:02:50;;;;;;;7.60;5.10;;;3.50;99.90;;;;;;5069011;28;20241;-76
2023/03/11 10:05:30;;;;;;;8.00;4.83;;;3.70;99.90;;;;;;5072891;28;20222;-76
2023/03/11 10:08:21;;;;;;;8.53;5.47;;;3.90;99.90;;;;;;5068719;28;20241;-76
2023/03/11 10:11:08;;;;;;;7.77;5.13;;;3.90;99.90;;;;;;5047655;28;20178;-76
2023/03/11 10:13:59;;;;;;;7.40;5.60;;;3.80;99.90;;;;;;5055321;28;20187;-77
2023/03/11 10:16:39;;;;;;;7.73;5.30;;;3.90;99.90;;;;;;5066412;28;20742;-76
2023/03/11 10:19:14;;;;;;;7.17;5.00;;;3.80;99.90;;;;;;5058517;28;20242;-75
2023/03/11 10:21:54;;;;;;;9.30;6.47;;;4.10;99.90;;;;;;5068524;28;20249;-76
2023/03/11 10:24:42;;;;;;;7.07;5.70;;;4.40;99.90;;;;;;5058489;28;20217;-75
2023/03/11 10:27:25;;;;;;;9.07;5.67;;;4.50;99.90;;;;;;5062446;28;20357;-75
2023/03/11 10:30:08;;;;;;;8.27;6.07;;;4.80;99.90;;;;;;5047321;28;20692;-75
2023/03/11 10:32:51;;;;;;;10.17;6.10;;;5.10;99.90;;;;;;5066711;28;20288;-76
2023/03/11 10:35:22;;;;;;;6.23;5.43;;;5.00;99.90;;;;;;5070113;28;20273;-76
2023/03/11 10:38:12;;;;;;;8.03;5.70;;;4.90;99.90;;;;;;5065297;28;20179;-76
2023/03/11 10:40:43;;;;;;;8.80;5.83;;;4.70;99.90;;;;;;5065984;28;20658;-75
2023/03/11 10:43:19;;;;;;;7.20;5.47;;;4.60;99.90;;;;;;5057083;28;20210;-76
2023/03/11 10:45:49;;;;;;;9.00;5.77;;;4.70;99.90;;;;;;5056054;28;20215;-76
2023/03/11 10:48:17;;;;;;;8.43;6.57;;;4.70;99.90;;;;;;5047823;28;20273;-76
2023/03/11 10:51:01;;;;;;;9.30;5.70;;;5.00;99.90;;;;;;5050002;28;20213;-75
2023/03/11 10:53:27;;;;;;;6.27;5.60;;;5.20;99.90;;;;;;5066670;28;20580;-75
2023/03/11 10:55:55;;;;;;;7.43;5.63;;;5.30;99.90;;;;;;5075824;28;20214;-77
2023/03/11 10:58:28;;;;;;;8.57;6.23;;;5.00;99.90;;;;;;5068546;28;20244;-76
2023/03/11 11:01:01;;;;;;;11.07;6.30;;;4.80;99.90;;;;;;5060842;28;20213;-76
2023/03/11 11:03:27;;;;;;;8.63;6.50;;;4.80;99.90;;;;;;5071842;28;20259;-76
2023/03/11 11:05:58;;;;;;;7.47;6.13;;;4.80;99.90;;;;;;5069495;28;20230;-76
2023/03/11 11:08:24;;;;;;;10.53;7.43;;;5.00;99.90;;;;;;5069966;28;20214;-76
2023/03/11 11:10:56;;;;;;;9.47;6.80;;;5.00;99.90;;;;;;5067187;28;20183;-76
2023/03/11 11:13:29;;;;;;;8.50;6.10;;;5.10;99.90;;;;;;5063729;28;20177;-75
2023/03/11 11:16:16;;;;;;;12.93;7.00;;;5.20;99.90;;;;;;5074206;28;20578;-75
2023/03/11 11:18:47;;;;;;;13.33;7.80;;;5.00;99.90;;;;;;5068281;28;20206;-76
2023/03/11 11:21:15;;;;;;;10.07;7.30;;;4.80;99.90;;;;;;5049809;28;20217;-76
2023/03/11 11:23:46;;;;;;;14.73;7.73;;;4.80;99.90;;;;;;5055735;28;20214;-75
2023/03/11 11:26:23;;;;;;;12.93;8.23;;;4.90;99.90;;;;;;5078086;28;20295;-75
2023/03/11 11:29:19;;;;;;;13.93;8.40;;;5.00;99.90;;;;;;5077231;28;20197;-78
2023/03/11 11:31:45;;;;;;;12.70;8.57;;;5.10;99.90;;;;;;5059841;28;20320;-75
2023/03/11 11:34:37;;;;;;;13.77;8.37;;;5.20;99.90;;;;;;5051588;28;20210;-79
2023/03/11 11:37:04;;;;;;;12.27;8.47;;;5.10;99.90;;;;;;5053974;28;20223;-75
2023/03/11 11:39:50;;;;;;;13.13;7.90;;;5.20;99.90;;;;;;5062605;28;20202;-78
2023/03/11 11:42:17;;;;;;;11.53;8.33;;;5.30;99.90;;;;;;5056858;28;20701;-77
2023/03/11 11:44:49;;;;;;;11.30;8.13;;;5.30;99.90;;;;;;5056039;28;20218;-76
2023/03/11 11:47:17;;;;;;;11.60;8.87;;;5.10;99.90;;;;;;5057935;28;20236;-77
2023/03/11 11:49:51;;;;;;;12.93;8.80;;;5.20;99.90;;;;;;5084968;28;20174;-77
2023/03/11 11:52:25;;;;;;;11.63;8.27;;;5.40;99.90;;;;;;5076685;28;20214;-75
2023/03/11 11:55:01;;;;;;;9.80;7.03;;;5.30;99.90;;;;;;5067488;28;20215;-75
2023/03/11 11:57:27;;;;;;;9.93;7.33;;;5.00;99.90;;;;;;5066809;28;20203;-76
2023/03/11 11:59:52;;;;;;;12.43;8.20;;;4.90;99.90;;;;;;5079053;28;20217;-76
2023/03/11 12:02:57;;;;;;;10.00;7.83;;;4.70;99.90;;;;;;5072130;28;20598;-76
2023/03/11 12:05:29;;;;;;;9.87;6.60;;;4.70;99.90;;;;;;5069962;28;20234;-75
2023/03/11 12:08:19;;;;;;;11.97;6.73;;;4.60;99.90;;;;;;5063344;28;20279;-76
2023/03/11 12:11:01;;;;;;;10.60;7.30;;;4.70;99.90;;;;;;5072853;28;20187;-74
2023/03/11 12:13:45;;;;;;;11.37;8.03;;;4.80;99.90;;;;;;5073727;28;20202;-76
2023/03/11 12:16:14;;;;;;;10.30;7.90;;;5.00;99.90;;;;;;5067494;28;20214;-75
2023/03/11 12:18:55;;;;;;;10.47;6.93;;;5.30;99.90;;;;;;5054466;28;20241;-76
2023/03/11 12:21:39;;;;;;;11.27;7.43;;;5.40;99.90;;;;;;5058074;28;20211;-77
2023/03/11 12:24:28;;;;;;;11.73;8.13;;;5.40;99.90;;;;;;5055244;28;20207;-73
2023/03/11 12:26:59;;;;;;;11.40;7.87;;;5.50;99.90;;;;;;5052051;28;20214;-77
2023/03/11 12:29:43;;;;;;;9.87;7.37;;;5.50;99.90;;;;;;5053896;28;20226;-75
2023/03/11 12:32:31;;;;;;;8.17;6.67;;;5.50;99.90;;;;;;5076904;28;20700;-76
2023/03/11 12:35:04;;;;;;;8.53;6.07;;;5.30;99.90;;;;;;5065345;28;20218;-76
2023/03/11 12:37:30;;;;;;;8.77;6.13;;;5.10;99.90;;;;;;5054673;28;20224;-78
2023/03/11 12:39:55;;;;;;;7.30;6.10;;;5.10;99.90;;;;;;5066547;28;20207;-77
2023/03/11 12:42:25;;;;;;;14.33;6.57;;;5.20;99.90;;;;;;5077604;28;20744;-77
2023/03/11 12:44:52;;;;;;;9.23;6.13;;;5.20;99.90;;;;;;5075248;28;20285;-77
2023/03/11 12:47:27;;;;;;;9.80;6.73;;;5.10;99.90;;;;;;5070110;28;20215;-76
2023/03/11 12:50:38;;;;;;;8.40;6.63;;;4.80;99.90;;;;;;5054651;28;20261;-77
2023/03/11 12:53:03;;;;;;;10.93;7.83;;;4.90;99.90;;;;;;5068751;28;20175;-76
2023/03/11 12:55:32;;;;;;;8.17;6.67;;;4.80;99.90;;;;;;5077279;28;20220;-77
2023/03/11 12:58:30;;;;;;;10.07;7.10;;;4.70;99.90;;;;;;5071992;28;20207;-76
2023/03/11 13:01:16;;;;;;;9.57;6.57;;;4.70;99.90;;;;;;5066421;28;20256;-75
2023/03/11 13:03:47;;;;;;;9.80;6.83;;;4.80;99.90;;;;;;5065576;28;20255;-77